TJNR/NRR METAR and TAF weather

Enter ICAO airport designator
Station Type Date Time Source
TJNR METAR 2020/02/20 16:53 UTC NOAA

TJNR 201653Z AUTO 10014G20KT 8SM CLR 29/20 A3005 RMK AO2 SLP177 T02940200


Station Type Date Time Source
TJNR Decoded METAR 2020/02/20 16:53 UTC NOAA

ROOSEVELT ROADS PUERTO RICO, PR, United States (TJNR) 18-15N 65-38W 10M
Feb 20, 2020 - 11:53 AM EST / 2020.02.20 1653 UTC
Wind: from the E (100 degrees) at 16 MPH (14 KT) gusting to 23 MPH (20 KT):0
Visibility: 8 mile(s):0
Sky conditions: clear
Temperature: 84.9 F (29.4 C)
Dew Point: 68.0 F (20.0 C)
Relative Humidity: 57%
Pressure (altimeter): 30.05 in. Hg (1017 hPa)
ob: TJNR 201653Z AUTO 10014G20KT 8SM CLR 29/20 A3005 RMK AO2 SLP177 T02940200
cycle: 17

Station Type Date Time Source
TJNR TAF UTC NOAA

Error!

Example: see airport list